createdAt,value
2018-12-07T00:01:15.838Z,7.33
2018-12-07T00:03:44.221Z,8.83
2018-12-07T00:06:12.744Z,7.63
2018-12-07T00:08:41.163Z,8.07
2018-12-07T00:11:09.585Z,8.57
2018-12-07T00:13:38.043Z,9.27
2018-12-07T00:16:06.889Z,8.37
2018-12-07T00:18:35.273Z,8.77
2018-12-07T00:21:03.891Z,8.97
2018-12-07T00:23:32.477Z,9.23
2018-12-07T00:26:00.909Z,9.40
2018-12-07T00:28:29.359Z,8.50
2018-12-07T00:30:57.781Z,9.00
2018-12-07T00:33:26.238Z,8.47
2018-12-07T00:35:55.277Z,8.00
2018-12-07T00:38:23.693Z,8.50
2018-12-07T00:40:52.136Z,8.73
2018-12-07T00:43:20.550Z,8.67
2018-12-07T00:45:48.934Z,9.33
2018-12-07T00:48:17.332Z,9.23
2018-12-07T00:50:46.045Z,10.37
2018-12-07T00:53:14.458Z,9.67
2018-12-07T00:55:44.265Z,9.80
2018-12-07T00:58:12.716Z,9.90
2018-12-07T01:00:41.248Z,9.00
2018-12-07T01:03:09.637Z,9.50
2018-12-07T01:05:38.072Z,9.73
2018-12-07T01:08:06.509Z,10.23
2018-12-07T01:10:34.917Z,9.33
2018-12-07T01:13:03.668Z,10.33
2018-12-07T01:15:32.362Z,9.40
2018-12-07T01:18:00.764Z,9.17
2018-12-07T01:20:29.221Z,8.30
2018-12-07T01:22:57.596Z,8.37
2018-12-07T01:25:26.012Z,7.80
2018-12-07T01:27:54.468Z,6.70
2018-12-07T01:30:22.887Z,6.73
2018-12-07T01:32:51.269Z,6.27
2018-12-07T01:35:20.013Z,6.57
2018-12-07T01:37:49.092Z,6.17
2018-12-07T01:40:19.389Z,3.50
2018-12-07T01:42:48.057Z,4.00
2018-12-07T01:45:16.468Z,5.20
2018-12-07T01:47:47.182Z,4.33
2018-12-07T01:50:16.500Z,4.60
2018-12-07T01:52:45.215Z,4.40
2018-12-07T01:55:13.681Z,5.17
2018-12-07T01:57:43.089Z,4.70
2018-12-07T02:00:11.617Z,5.07
2018-12-07T02:02:40.121Z,4.33
2018-12-07T02:05:08.829Z,4.73
2018-12-07T02:07:37.258Z,4.80
2018-12-07T02:10:06.879Z,4.67
2018-12-07T02:12:35.425Z,4.97
2018-12-07T02:15:03.960Z,5.20
2018-12-07T02:17:32.344Z,5.43
2018-12-07T02:20:00.765Z,5.30
2018-12-07T02:22:29.165Z,4.90
2018-12-07T02:24:57.548Z,4.97
2018-12-07T02:27:25.987Z,3.77
2018-12-07T02:29:55.100Z,3.37
2018-12-07T02:32:23.481Z,3.07
2018-12-07T02:34:51.936Z,3.00
2018-12-07T02:37:20.566Z,3.47
2018-12-07T02:39:49.609Z,3.07
2018-12-07T02:42:18.037Z,2.97
2018-12-07T02:44:46.419Z,3.20
2018-12-07T02:47:14.964Z,3.43
2018-12-07T02:49:43.383Z,3.73
2018-12-07T02:52:11.779Z,3.27
2018-12-07T02:54:40.352Z,2.73
2018-12-07T02:57:09.227Z,2.33
2018-12-07T02:59:37.784Z,2.53
2018-12-07T03:02:06.604Z,2.60
2018-12-07T03:04:35.230Z,2.50
2018-12-07T03:07:03.841Z,3.03
2018-12-07T03:09:32.248Z,2.60
2018-12-07T03:12:00.689Z,2.43
2018-12-07T03:14:29.067Z,2.40
2018-12-07T03:16:57.627Z,2.20
2018-12-07T03:19:26.043Z,2.50
2018-12-07T03:21:54.466Z,2.70
2018-12-07T03:24:22.856Z,2.40
2018-12-07T03:26:51.289Z,1.97
2018-12-07T03:29:19.717Z,1.70
2018-12-07T03:31:48.110Z,1.80
2018-12-07T03:34:16.540Z,2.17
2018-12-07T03:36:45.020Z,2.00
2018-12-07T03:39:13.456Z,2.10
2018-12-07T03:41:42.388Z,2.13
2018-12-07T03:44:10.749Z,1.77
2018-12-07T03:46:39.129Z,1.70
2018-12-07T03:49:07.571Z,1.50
2018-12-07T03:51:36.033Z,1.50
2018-12-07T03:54:04.533Z,1.30
2018-12-07T03:56:32.989Z,1.53
2018-12-07T03:59:01.473Z,1.57
2018-12-07T04:01:29.845Z,1.70
2018-12-07T04:03:58.259Z,1.83
2018-12-07T04:06:26.677Z,1.87
2018-12-07T04:08:55.056Z,1.67
2018-12-07T04:11:23.473Z,1.80
2018-12-07T04:13:51.893Z,1.87
2018-12-07T04:16:20.888Z,1.93
2018-12-07T04:18:49.325Z,1.73
2018-12-07T04:21:17.733Z,1.70
2018-12-07T04:23:46.129Z,1.90
2018-12-07T04:26:14.548Z,1.90
2018-12-07T04:28:42.947Z,2.10
2018-12-07T04:31:12.028Z,1.80
2018-12-07T04:33:40.460Z,1.70
2018-12-07T04:36:08.870Z,2.03
2018-12-07T04:38:37.258Z,2.17
2018-12-07T04:41:05.839Z,2.00
2018-12-07T04:43:34.913Z,2.03
2018-12-07T04:46:03.305Z,2.73
2018-12-07T04:48:32.118Z,2.50
2018-12-07T04:51:00.549Z,2.30
2018-12-07T04:53:29.108Z,2.40
2018-12-07T04:55:57.518Z,2.40
2018-12-07T04:58:25.901Z,2.60
2018-12-07T05:00:54.321Z,2.50
2018-12-07T05:03:22.814Z,2.80
2018-12-07T05:05:51.201Z,2.63
2018-12-07T05:08:19.587Z,2.97
2018-12-07T05:10:48.066Z,2.83
2018-12-07T05:13:16.463Z,3.00
2018-12-07T05:15:44.854Z,3.70
2018-12-07T05:18:13.405Z,3.13
2018-12-07T05:20:44.789Z,3.43
2018-12-07T05:23:13.481Z,4.00
2018-12-07T05:25:41.878Z,4.00
2018-12-07T05:28:10.279Z,3.90
2018-12-07T05:30:38.698Z,3.67
2018-12-07T05:33:07.083Z,3.77
2018-12-07T05:35:35.462Z,3.47
2018-12-07T05:38:03.902Z,3.63
2018-12-07T05:40:32.421Z,4.23
2018-12-07T05:43:00.809Z,4.77
2018-12-07T05:45:29.638Z,5.30
2018-12-07T05:47:58.013Z,4.30
2018-12-07T05:50:26.833Z,4.70
2018-12-07T05:52:55.359Z,4.73
2018-12-07T05:55:23.745Z,4.20
2018-12-07T05:57:52.109Z,4.00
2018-12-07T06:00:20.649Z,4.07
2018-12-07T06:02:49.048Z,4.10
2018-12-07T06:05:17.468Z,4.20
2018-12-07T06:07:46.076Z,4.90
2018-12-07T06:10:14.466Z,4.40
2018-12-07T06:12:42.889Z,4.60
2018-12-07T06:15:11.357Z,4.60
2018-12-07T06:17:39.798Z,4.87
2018-12-07T06:20:08.365Z,4.60
2018-12-07T06:22:36.785Z,4.90
2018-12-07T06:25:05.498Z,4.80
2018-12-07T06:27:33.869Z,4.73
2018-12-07T06:30:02.306Z,5.07
2018-12-07T06:32:36.055Z,4.67
2018-12-07T06:35:01.195Z,4.70
2018-12-07T06:37:30.027Z,5.80
2018-12-07T06:39:58.403Z,5.80
2018-12-07T06:42:27.097Z,5.07
2018-12-07T06:44:55.607Z,4.67
2018-12-07T06:47:24.285Z,5.40
2018-12-07T06:49:52.705Z,5.13
2018-12-07T06:52:21.157Z,5.20
2018-12-07T06:54:49.557Z,5.00
2018-12-07T06:57:17.965Z,5.10
2018-12-07T06:59:46.444Z,5.37
2018-12-07T07:02:14.976Z,5.57
2018-12-07T07:04:43.647Z,5.77
2018-12-07T07:07:12.056Z,5.20
2018-12-07T07:09:40.450Z,5.93
2018-12-07T07:12:08.946Z,6.97
2018-12-07T07:14:37.406Z,6.40
2018-12-07T07:17:05.996Z,6.00
2018-12-07T07:19:34.369Z,6.30
2018-12-07T07:22:02.878Z,6.27
2018-12-07T07:24:31.379Z,6.70
2018-12-07T07:27:00.089Z,6.60
2018-12-07T07:29:28.524Z,6.00
2018-12-07T07:31:56.900Z,6.60
2018-12-07T07:34:25.516Z,6.63
2018-12-07T07:36:54.040Z,6.90
2018-12-07T07:39:22.466Z,6.10
2018-12-07T07:41:50.974Z,6.20
2018-12-07T07:44:19.409Z,6.97
2018-12-07T07:46:48.119Z,7.23
2018-12-07T07:49:23.545Z,7.13
2018-12-07T07:51:51.937Z,6.90
2018-12-07T07:54:21.171Z,7.70
2018-12-07T07:56:49.766Z,7.43
2018-12-07T07:59:18.153Z,6.93
2018-12-07T08:01:46.610Z,7.30
2018-12-07T08:04:15.649Z,6.67
2018-12-07T08:06:44.042Z,6.87
2018-12-07T08:09:12.413Z,7.50
2018-12-07T08:11:40.809Z,7.87
2018-12-07T08:14:09.213Z,8.27
2018-12-07T08:16:37.617Z,8.73
2018-12-07T08:19:06.208Z,7.63
2018-12-07T08:21:34.606Z,8.43
2018-12-07T08:24:03.009Z,8.50
2018-12-07T08:26:31.598Z,7.80
2018-12-07T08:28:59.976Z,8.43
2018-12-07T08:31:28.429Z,8.63
2018-12-07T08:33:56.877Z,8.23
2018-12-07T08:36:25.393Z,8.40
2018-12-07T08:38:53.762Z,8.43
2018-12-07T08:41:22.236Z,8.53
2018-12-07T08:43:50.675Z,8.83
2018-12-07T08:46:19.221Z,8.30
2018-12-07T08:48:47.697Z,9.00
2018-12-07T08:51:16.993Z,9.33
2018-12-07T08:53:45.646Z,8.87
2018-12-07T08:56:14.255Z,9.03
2018-12-07T08:58:42.844Z,9.73
2018-12-07T09:01:11.281Z,8.73
2018-12-07T09:03:39.843Z,9.13
2018-12-07T09:06:08.219Z,9.53
2018-12-07T09:08:36.613Z,9.63
2018-12-07T09:11:05.151Z,9.70
2018-12-07T09:13:33.658Z,9.30
2018-12-07T09:16:02.153Z,9.40
2018-12-07T09:18:30.585Z,9.23
2018-12-07T09:20:58.969Z,9.13
2018-12-07T09:23:27.405Z,9.23
2018-12-07T09:25:55.926Z,9.33
2018-12-07T09:28:24.341Z,10.10
2018-12-07T09:30:54.037Z,10.03
2018-12-07T09:33:22.687Z,9.87
2018-12-07T09:35:51.094Z,11.17
2018-12-07T09:38:19.490Z,9.90
2018-12-07T09:40:48.203Z,10.50
2018-12-07T09:43:16.997Z,10.43
2018-12-07T09:45:45.444Z,11.27
2018-12-07T09:48:14.060Z,10.50
2018-12-07T09:50:43.137Z,10.43
2018-12-07T09:53:12.001Z,11.07
2018-12-07T09:55:40.418Z,11.13
2018-12-07T09:58:08.844Z,10.60
2018-12-07T10:00:37.261Z,11.43
2018-12-07T10:03:06.275Z,11.17
2018-12-07T10:05:34.672Z,11.83
2018-12-07T10:08:03.164Z,11.80
2018-12-07T10:10:32.074Z,12.20
2018-12-07T10:13:07.706Z,14.13
2018-12-07T10:15:31.257Z,13.87
2018-12-07T10:17:59.663Z,12.97
2018-12-07T10:20:28.064Z,32.73
2018-12-07T10:22:56.500Z,15.50
2018-12-07T10:25:25.030Z,15.93
2018-12-07T10:27:54.626Z,15.40
2018-12-07T10:30:23.141Z,14.27
2018-12-07T10:32:52.982Z,15.90
2018-12-07T10:35:21.566Z,13.10
2018-12-07T10:37:49.981Z,15.93
2018-12-07T10:40:18.350Z,13.90
2018-12-07T10:42:46.909Z,15.40
2018-12-07T10:45:15.359Z,12.10
2018-12-07T10:47:50.082Z,14.73
2018-12-07T10:50:14.402Z,13.20
2018-12-07T10:52:42.968Z,13.30
2018-12-07T10:55:11.891Z,12.67
2018-12-07T10:57:40.815Z,13.37
2018-12-07T11:00:22.747Z,11.87
2018-12-07T11:02:52.674Z,11.10
2018-12-07T11:05:26.355Z,12.07
2018-12-07T11:07:59.974Z,9.83
2018-12-07T11:10:33.699Z,10.53
2018-12-07T11:13:07.392Z,10.13
2018-12-07T11:15:41.265Z,10.80
2018-12-07T11:18:14.831Z,11.13
2018-12-07T11:20:48.867Z,12.60
2018-12-07T11:23:22.601Z,12.50
2018-12-07T11:25:56.096Z,11.60
2018-12-07T11:28:29.711Z,11.60
2018-12-07T11:31:03.593Z,12.17
2018-12-07T11:33:37.319Z,10.93
2018-12-07T11:36:08.268Z,11.47
2018-12-07T11:38:37.057Z,12.40
2018-12-07T11:41:05.739Z,12.07
2018-12-07T11:43:35.511Z,11.60
2018-12-07T11:46:03.901Z,12.17
2018-12-07T11:48:32.347Z,13.30
2018-12-07T11:51:00.761Z,13.20
2018-12-07T11:53:29.189Z,10.00
2018-12-07T11:55:58.378Z,8.27
2018-12-07T11:58:26.805Z,9.90
2018-12-07T12:00:55.205Z,7.03
2018-12-07T12:03:23.665Z,9.47
2018-12-07T12:05:52.068Z,9.53
2018-12-07T12:08:20.473Z,11.77
2018-12-07T12:10:49.030Z,12.03
2018-12-07T12:13:17.437Z,10.43
2018-12-07T12:15:46.164Z,10.73
2018-12-07T12:18:14.677Z,11.93
2018-12-07T12:20:43.233Z,10.90
2018-12-07T12:23:11.636Z,12.93
2018-12-07T12:25:40.098Z,12.37
2018-12-07T12:28:08.509Z,14.20
2018-12-07T12:30:36.893Z,10.37
2018-12-07T12:33:06.380Z,10.27
2018-12-07T12:35:34.789Z,10.43
2018-12-07T12:38:03.669Z,10.23
2018-12-07T12:40:32.115Z,11.03
2018-12-07T12:43:00.597Z,12.27
2018-12-07T12:45:29.120Z,11.20
2018-12-07T12:47:57.564Z,10.27
2018-12-07T12:50:31.282Z,9.43
2018-12-07T12:52:59.801Z,11.57
2018-12-07T12:55:28.193Z,11.33
2018-12-07T12:57:57.406Z,11.00
2018-12-07T13:00:26.612Z,11.10
2018-12-07T13:02:55.695Z,10.63
2018-12-07T13:05:24.621Z,9.10
2018-12-07T13:07:53.085Z,10.27
2018-12-07T13:10:21.521Z,10.10
2018-12-07T13:12:49.911Z,9.70
2018-12-07T13:15:18.359Z,10.07
2018-12-07T13:17:46.837Z,10.50
2018-12-07T13:20:15.272Z,11.63
2018-12-07T13:22:43.720Z,9.90
2018-12-07T13:25:12.109Z,11.80
2018-12-07T13:27:40.755Z,12.03
2018-12-07T13:30:10.270Z,12.13
2018-12-07T13:32:38.687Z,12.53
2018-12-07T13:35:07.105Z,14.80
2018-12-07T13:37:36.427Z,12.47
2018-12-07T13:40:05.681Z,13.60
2018-12-07T13:42:34.236Z,13.87
2018-12-07T13:45:04.613Z,15.40
2018-12-07T13:47:33.811Z,15.17
2018-12-07T13:50:08.097Z,14.43
2018-12-07T13:52:36.806Z,14.70
2018-12-07T13:55:05.821Z,14.60
2018-12-07T13:57:34.263Z,14.30
2018-12-07T14:00:02.831Z,15.30
2018-12-07T14:02:31.298Z,14.57
2018-12-07T14:05:00.415Z,14.27
2018-12-07T14:07:29.628Z,15.50
2018-12-07T14:09:58.101Z,15.53
2018-12-07T14:12:26.696Z,15.10
2018-12-07T14:14:55.082Z,16.40
2018-12-07T14:17:23.519Z,13.73
2018-12-07T14:19:52.448Z,13.73
2018-12-07T14:22:21.126Z,12.73
2018-12-07T14:24:49.916Z,13.63
2018-12-07T14:27:18.685Z,12.37
2018-12-07T14:29:47.468Z,12.57
2018-12-07T14:32:16.059Z,12.23
2018-12-07T14:34:44.693Z,11.47
2018-12-07T14:37:13.227Z,11.43
2018-12-07T14:39:41.720Z,12.70
2018-12-07T14:42:10.259Z,13.10
2018-12-07T14:44:38.940Z,12.43
2018-12-07T14:47:07.450Z,11.73
2018-12-07T14:49:36.027Z,13.17
2018-12-07T14:52:04.877Z,12.03
2018-12-07T14:54:33.369Z,13.23
2018-12-07T14:57:02.141Z,13.30
2018-12-07T14:59:30.897Z,13.53
2018-12-07T15:01:59.799Z,13.30
2018-12-07T15:04:28.427Z,13.13
2018-12-07T15:06:57.142Z,12.13
2018-12-07T15:09:25.956Z,13.17
2018-12-07T15:11:54.829Z,12.70
2018-12-07T15:14:23.403Z,13.40
2018-12-07T15:16:52.476Z,14.17
2018-12-07T15:19:21.123Z,13.23
2018-12-07T15:21:49.747Z,17.17
2018-12-07T15:24:18.227Z,13.07
2018-12-07T15:26:47.754Z,11.37
2018-12-07T15:29:17.003Z,16.37
2018-12-07T15:31:45.519Z,13.87
2018-12-07T15:34:14.247Z,21.33
2018-12-07T15:36:42.790Z,12.27
2018-12-07T15:39:11.833Z,15.17
2018-12-07T15:41:41.157Z,11.60
2018-12-07T15:44:10.249Z,13.83
2018-12-07T15:46:39.563Z,11.90
2018-12-07T15:49:09.025Z,11.73
2018-12-07T15:51:37.575Z,13.73
2018-12-07T15:54:06.089Z,14.53
2018-12-07T15:56:34.668Z,14.60
2018-12-07T15:59:03.329Z,14.57
2018-12-07T16:01:32.151Z,14.23
2018-12-07T16:04:01.053Z,13.87
2018-12-07T16:06:29.709Z,14.80
2018-12-07T16:08:58.840Z,12.10
2018-12-07T16:11:27.729Z,9.30
2018-12-07T16:13:56.477Z,10.70
2018-12-07T16:16:25.186Z,11.53
2018-12-07T16:18:53.791Z,11.43
2018-12-07T16:21:22.318Z,14.07
2018-12-07T16:23:51.110Z,13.10
2018-12-07T16:26:20.002Z,14.23
2018-12-07T16:28:48.818Z,13.67
2018-12-07T16:31:17.432Z,15.13
2018-12-07T16:33:46.122Z,14.20
2018-12-07T16:36:14.988Z,14.03
2018-12-07T16:38:43.573Z,13.47
2018-12-07T16:41:12.902Z,13.77
2018-12-07T16:43:41.672Z,15.07
2018-12-07T16:46:10.635Z,14.60
2018-12-07T16:48:39.210Z,14.67
2018-12-07T16:51:08.528Z,14.53
2018-12-07T16:53:37.180Z,13.80
2018-12-07T16:56:05.910Z,13.80
2018-12-07T16:58:35.021Z,12.90
2018-12-07T17:01:03.978Z,12.10
2018-12-07T17:03:32.834Z,11.57
2018-12-07T17:06:01.585Z,12.33
2018-12-07T17:08:30.966Z,11.93
2018-12-07T17:10:59.856Z,12.73
2018-12-07T17:13:29.150Z,14.33
2018-12-07T17:15:58.020Z,14.50
2018-12-07T17:18:26.514Z,13.07
2018-12-07T17:20:55.248Z,14.57
2018-12-07T17:23:25.871Z,12.10
2018-12-07T17:25:54.679Z,11.73
2018-12-07T17:28:23.214Z,12.60
2018-12-07T17:30:51.677Z,12.80
2018-12-07T17:33:20.111Z,12.37
2018-12-07T17:35:49.033Z,11.43
2018-12-07T17:38:17.651Z,11.37
2018-12-07T17:40:46.470Z,12.93
2018-12-07T17:43:14.975Z,11.73
2018-12-07T17:45:43.741Z,12.53
2018-12-07T17:48:12.605Z,12.60
2018-12-07T17:50:41.070Z,12.83
2018-12-07T17:53:09.772Z,13.40
2018-12-07T17:55:38.540Z,11.13
2018-12-07T17:58:07.250Z,12.97
2018-12-07T18:00:36.099Z,13.23
2018-12-07T18:03:04.896Z,13.17
2018-12-07T18:05:33.503Z,11.90
2018-12-07T18:08:02.449Z,12.00
2018-12-07T18:10:31.247Z,12.13
2018-12-07T18:12:59.912Z,11.70
2018-12-07T18:15:29.111Z,12.77
2018-12-07T18:17:57.541Z,13.77
2018-12-07T18:20:26.129Z,13.93
2018-12-07T18:22:55.375Z,13.77
2018-12-07T18:25:23.928Z,14.03
2018-12-07T18:27:52.395Z,13.73
2018-12-07T18:30:20.972Z,15.07
2018-12-07T18:32:49.621Z,13.40
2018-12-07T18:35:19.139Z,13.93
2018-12-07T18:37:47.700Z,15.53
2018-12-07T18:40:16.329Z,16.57
2018-12-07T18:42:44.745Z,14.80
2018-12-07T18:45:13.410Z,14.90
2018-12-07T18:47:42.088Z,13.30
2018-12-07T18:50:10.865Z,12.37
2018-12-07T18:52:40.887Z,13.43
2018-12-07T18:55:10.660Z,13.30
2018-12-07T18:57:39.904Z,13.03
2018-12-07T19:00:09.469Z,13.27
2018-12-07T19:02:38.151Z,13.27
2018-12-07T19:05:06.807Z,14.77
2018-12-07T19:07:35.462Z,14.13
2018-12-07T19:10:04.952Z,13.90
2018-12-07T19:12:33.393Z,21.63
2018-12-07T19:15:01.906Z,15.13
2018-12-07T19:17:31.317Z,12.90
2018-12-07T19:19:59.925Z,14.17
2018-12-07T19:22:28.594Z,14.50
2018-12-07T19:24:57.390Z,14.33
2018-12-07T19:27:25.929Z,13.43
2018-12-07T19:29:54.329Z,13.97
2018-12-07T19:32:23.241Z,14.17
2018-12-07T19:34:51.859Z,13.67
2018-12-07T19:37:20.931Z,15.20
2018-12-07T19:39:49.674Z,13.80
2018-12-07T19:42:18.675Z,14.97
2018-12-07T19:44:48.550Z,14.20
2018-12-07T19:47:17.129Z,15.13
2018-12-07T19:49:45.941Z,14.83
2018-12-07T19:52:14.831Z,14.37
2018-12-07T19:54:44.237Z,14.53
2018-12-07T19:57:12.867Z,14.50
2018-12-07T19:59:41.616Z,13.90
2018-12-07T20:02:10.157Z,13.80
2018-12-07T20:04:38.718Z,14.43
2018-12-07T20:07:07.380Z,13.97
2018-12-07T20:09:36.125Z,14.87
2018-12-07T20:12:04.921Z,14.87
2018-12-07T20:14:33.589Z,14.23
2018-12-07T20:17:02.493Z,15.43
2018-12-07T20:19:31.486Z,13.87
2018-12-07T20:22:01.157Z,14.37
2018-12-07T20:24:29.588Z,13.93
2018-12-07T20:26:58.035Z,14.10
2018-12-07T20:29:26.439Z,13.50
2018-12-07T20:31:55.035Z,15.80
2018-12-07T20:34:23.599Z,15.33
2018-12-07T20:36:52.277Z,14.40
2018-12-07T20:39:21.155Z,12.13
2018-12-07T20:41:49.770Z,10.67
2018-12-07T20:44:18.230Z,10.27
2018-12-07T20:46:46.813Z,9.40
2018-12-07T20:49:16.052Z,9.57
2018-12-07T20:51:44.831Z,10.20
2018-12-07T20:54:14.399Z,10.07
2018-12-07T20:56:42.981Z,8.97
2018-12-07T20:59:11.594Z,9.53
2018-12-07T21:01:40.262Z,9.83
2018-12-07T21:04:25.045Z,9.33
2018-12-07T21:07:32.259Z,9.37
2018-12-07T21:12:23.376Z,9.37
2018-12-07T21:14:54.110Z,10.10
2018-12-07T21:17:30.290Z,10.40
2018-12-07T21:20:11.965Z,10.43
2018-12-07T21:22:40.596Z,9.90
2018-12-07T21:25:09.209Z,10.27
2018-12-07T21:27:37.894Z,9.53
2018-12-07T21:30:23.201Z,10.03
2018-12-07T21:32:52.317Z,9.53
2018-12-07T21:35:20.812Z,9.97
2018-12-07T21:37:49.644Z,9.80
2018-12-07T21:40:22.590Z,8.63
2018-12-07T21:42:51.113Z,9.37
2018-12-07T21:45:19.695Z,9.23
2018-12-07T21:48:26.974Z,9.50
2018-12-07T21:51:17.858Z,8.93
2018-12-07T21:53:46.540Z,8.93
2018-12-07T21:56:14.990Z,9.83
2018-12-07T21:58:43.408Z,8.27
2018-12-07T22:01:11.928Z,9.87
2018-12-07T22:03:40.765Z,10.10
2018-12-07T22:06:09.686Z,9.43
2018-12-07T22:08:38.211Z,10.27
2018-12-07T22:11:07.350Z,10.27
2018-12-07T22:13:36.251Z,11.20
2018-12-07T22:16:04.932Z,10.27
2018-12-07T22:18:33.357Z,11.37
2018-12-07T22:21:02.111Z,11.57
2018-12-07T22:23:30.988Z,11.67
2018-12-07T22:25:59.574Z,11.77
2018-12-07T22:28:28.554Z,12.50
2018-12-07T22:30:57.354Z,11.90
2018-12-07T22:33:25.989Z,11.90
2018-12-07T22:35:54.692Z,11.67
2018-12-07T22:38:23.410Z,13.20
2018-12-07T22:40:52.176Z,12.83
2018-12-07T22:43:20.984Z,13.53
2018-12-07T22:45:49.643Z,13.53
2018-12-07T22:48:18.283Z,13.13
2018-12-07T22:50:46.888Z,13.37
2018-12-07T22:53:15.322Z,12.90
2018-12-07T22:55:43.989Z,12.90
2018-12-07T22:58:12.369Z,13.53
2018-12-07T23:00:44.426Z,13.37
2018-12-07T23:03:13.138Z,13.73
2018-12-07T23:05:41.555Z,13.57
2018-12-07T23:08:10.112Z,13.43
2018-12-07T23:10:39.021Z,13.53
2018-12-07T23:13:07.748Z,13.87
2018-12-07T23:15:36.434Z,15.43
2018-12-07T23:18:04.837Z,14.43
2018-12-07T23:20:33.289Z,14.67
2018-12-07T23:23:03.007Z,15.27
2018-12-07T23:25:31.397Z,14.27
2018-12-07T23:28:00.329Z,16.43
2018-12-07T23:30:28.849Z,16.70
2018-12-07T23:32:57.239Z,15.00
2018-12-07T23:35:25.665Z,15.43
2018-12-07T23:37:54.087Z,15.47
2018-12-07T23:40:22.485Z,15.23
2018-12-07T23:42:53.618Z,14.90
2018-12-07T23:45:22.113Z,15.37
2018-12-07T23:47:50.775Z,15.07
2018-12-07T23:50:19.186Z,15.43
2018-12-07T23:52:47.701Z,14.77
2018-12-07T23:55:16.251Z,15.00
2018-12-07T23:57:44.645Z,13.90
